createdAt,value
2022-08-14T00:00:20.789Z,11.10
2022-08-14T00:05:44.146Z,10.07
2022-08-14T00:10:52.511Z,10.03
2022-08-14T00:15:57.220Z,10.00
2022-08-14T00:21:02.887Z,9.45
2022-08-14T00:26:08.549Z,9.18
2022-08-14T00:31:35.180Z,9.63
2022-08-14T00:36:49.534Z,9.50
2022-08-14T00:41:52.739Z,9.50
2022-08-14T00:46:58.849Z,9.50
2022-08-14T00:52:02.109Z,9.15
2022-08-14T00:57:05.861Z,8.67
2022-08-14T01:02:10.622Z,9.63
2022-08-14T01:07:21.520Z,9.00
2022-08-14T01:12:29.816Z,9.25
2022-08-14T01:17:52.538Z,8.80
2022-08-14T01:22:55.372Z,9.37
2022-08-14T01:27:58.812Z,9.00
2022-08-14T01:33:02.966Z,9.53
2022-08-14T01:38:05.799Z,9.13
2022-08-14T01:43:14.734Z,9.17
2022-08-14T01:48:20.601Z,8.40
2022-08-14T01:53:23.869Z,8.43
2022-08-14T01:58:33.156Z,8.17
2022-08-14T02:03:41.062Z,8.67
2022-08-14T02:08:55.243Z,8.83
2022-08-14T02:14:07.510Z,8.23
2022-08-14T02:19:14.314Z,8.50
2022-08-14T02:24:39.573Z,8.93
2022-08-14T02:29:59.560Z,8.47
2022-08-14T02:35:07.286Z,9.27
2022-08-14T02:40:12.891Z,9.43
2022-08-14T02:45:15.719Z,9.30
2022-08-14T02:50:21.276Z,8.73
2022-08-14T02:55:31.042Z,8.13
2022-08-14T03:00:39.873Z,9.40
2022-08-14T03:05:43.738Z,9.40
2022-08-14T03:10:49.320Z,8.70
2022-08-14T03:15:55.590Z,9.63
2022-08-14T03:21:04.920Z,9.13
2022-08-14T03:26:18.557Z,9.53
2022-08-14T03:31:33.122Z,9.27
2022-08-14T03:37:51.074Z,9.30
2022-08-14T03:41:59.765Z,9.57
2022-08-14T03:47:04.816Z,8.47
2022-08-14T03:52:37.514Z,9.27
2022-08-14T03:57:32.466Z,9.67
2022-08-14T04:02:37.545Z,10.03
2022-08-14T04:08:08.209Z,10.03
2022-08-14T04:13:12.774Z,10.07
2022-08-14T04:18:15.749Z,10.93
2022-08-14T04:23:23.601Z,10.33
2022-08-14T04:29:09.251Z,11.20
2022-08-14T04:33:55.571Z,10.77
2022-08-14T04:39:22.029Z,10.90
2022-08-14T04:44:26.684Z,10.57
2022-08-14T04:49:46.595Z,11.10
2022-08-14T04:54:59.935Z,11.17
2022-08-14T05:00:04.740Z,10.93
2022-08-14T05:05:09.046Z,11.13
2022-08-14T05:10:16.773Z,12.67
2022-08-14T05:15:29.521Z,14.25
2022-08-14T05:21:54.134Z,13.27
2022-08-14T05:26:02.026Z,12.87
2022-08-14T05:31:08.862Z,13.50
2022-08-14T05:36:16.632Z,13.03
2022-08-14T05:41:20.174Z,14.83
2022-08-14T05:46:24.721Z,12.93
2022-08-14T05:51:28.591Z,13.83
2022-08-14T05:56:34.120Z,13.27
2022-08-14T06:01:40.028Z,13.67
2022-08-14T06:06:42.767Z,14.63
2022-08-14T06:11:45.735Z,14.35
2022-08-14T06:16:53.283Z,10.70
2022-08-14T06:21:58.341Z,10.83
2022-08-14T06:27:04.418Z,12.27
2022-08-14T06:32:38.726Z,10.60
2022-08-14T06:37:50.683Z,9.17
2022-08-14T06:42:53.822Z,9.25
2022-08-14T06:47:58.855Z,8.57
2022-08-14T06:53:01.839Z,8.50
2022-08-14T06:58:04.773Z,7.77
2022-08-14T07:03:34.832Z,8.70
2022-08-14T07:08:39.070Z,8.18
2022-08-14T07:13:41.849Z,9.70
2022-08-14T07:18:45.744Z,9.20
2022-08-14T07:23:53.697Z,8.35
2022-08-14T07:28:56.426Z,9.45
2022-08-14T07:34:00.124Z,8.73
2022-08-14T07:39:12.517Z,9.20
2022-08-14T07:44:32.957Z,9.73
2022-08-14T07:49:39.034Z,9.75
2022-08-14T07:54:43.652Z,9.18
2022-08-14T07:59:49.034Z,9.80
2022-08-14T08:04:58.965Z,9.23
2022-08-14T08:10:40.693Z,9.30
2022-08-14T08:15:59.360Z,9.13
2022-08-14T08:21:02.470Z,7.72
2022-08-14T08:26:05.276Z,7.80
2022-08-14T08:31:08.414Z,7.75
2022-08-14T08:36:12.902Z,7.07
2022-08-14T08:41:21.131Z,5.90
2022-08-14T08:46:24.734Z,6.10
2022-08-14T08:51:34.553Z,6.30
2022-08-14T08:56:47.635Z,6.30
2022-08-14T09:01:57.732Z,6.03
2022-08-14T09:07:10.407Z,5.63
2022-08-14T09:12:15.258Z,5.88
2022-08-14T09:17:17.946Z,5.70
2022-08-14T09:22:35.681Z,6.03
2022-08-14T09:27:39.661Z,10.82
2022-08-14T09:33:17.311Z,7.80
2022-08-14T09:38:48.000Z,7.82
2022-08-14T09:44:04.643Z,8.35
2022-08-14T09:49:12.021Z,9.20
2022-08-14T09:54:23.493Z,8.38
2022-08-14T09:59:27.947Z,6.93
2022-08-14T10:04:36.576Z,7.70
2022-08-14T10:09:57.771Z,5.75
2022-08-14T10:15:13.612Z,7.72
2022-08-14T10:20:40.501Z,8.60
2022-08-14T10:25:50.874Z,8.15
2022-08-14T10:30:54.563Z,10.02
2022-08-14T10:36:00.703Z,9.52
2022-08-14T10:41:14.334Z,8.18
2022-08-14T10:47:36.163Z,6.50
2022-08-14T10:51:41.802Z,4.45
2022-08-14T10:56:45.574Z,5.63
2022-08-14T11:01:48.866Z,5.32
2022-08-14T11:06:55.286Z,4.80
2022-08-14T11:12:33.151Z,3.88
2022-08-14T11:17:22.338Z,5.95
2022-08-14T11:22:55.641Z,4.53
2022-08-14T11:27:54.969Z,4.45
2022-08-14T11:32:58.574Z,5.65
2022-08-14T11:38:03.617Z,4.85
2022-08-14T11:43:33.520Z,5.28
2022-08-14T11:49:02.854Z,6.00
2022-08-14T11:54:08.233Z,5.13
2022-08-14T11:59:26.444Z,5.93
2022-08-14T12:04:36.627Z,5.70
2022-08-14T12:09:43.085Z,5.10
2022-08-14T12:14:56.328Z,6.43
2022-08-14T12:20:07.348Z,3.47
2022-08-14T12:25:24.599Z,6.05
2022-08-14T12:30:29.452Z,4.15
2022-08-14T12:35:45.252Z,5.38
2022-08-14T12:40:52.829Z,5.05
2022-08-14T12:45:58.731Z,3.80
2022-08-14T12:51:01.546Z,3.08
2022-08-14T12:56:22.782Z,4.80
2022-08-14T13:02:00.301Z,2.90
2022-08-14T13:06:56.023Z,3.55
2022-08-14T13:12:31.725Z,4.97
2022-08-14T13:17:24.481Z,3.45
2022-08-14T13:22:38.281Z,3.65
2022-08-14T13:28:00.667Z,2.72
2022-08-14T13:33:06.792Z,3.00
2022-08-14T13:38:25.625Z,3.95
2022-08-14T13:43:36.445Z,5.30
2022-08-14T13:48:39.327Z,2.33
2022-08-14T13:54:07.195Z,6.40
2022-08-14T13:59:11.701Z,2.60
2022-08-14T14:04:20.246Z,3.20
2022-08-14T14:09:32.618Z,4.47
2022-08-14T14:14:51.159Z,5.03
2022-08-14T14:19:55.231Z,3.80
2022-08-14T14:24:58.048Z,3.53
2022-08-14T14:30:03.345Z,2.60
2022-08-14T14:35:22.764Z,3.88
2022-08-14T14:40:53.145Z,3.22
2022-08-14T14:45:58.987Z,2.63
2022-08-14T14:51:01.774Z,3.45
2022-08-14T14:56:49.919Z,3.42
2022-08-14T15:01:28.110Z,3.33
2022-08-14T15:06:34.169Z,3.35
2022-08-14T15:11:36.955Z,2.47
2022-08-14T15:16:41.298Z,3.22
2022-08-14T15:21:44.230Z,3.88
2022-08-14T15:26:46.935Z,4.00
2022-08-14T15:31:50.643Z,2.83
2022-08-14T15:36:56.124Z,2.92
2022-08-14T15:42:02.023Z,2.75
2022-08-14T15:47:09.271Z,3.67
2022-08-14T15:52:12.004Z,2.88
2022-08-14T15:57:15.856Z,3.70
2022-08-14T16:02:24.381Z,2.50
2022-08-14T16:07:30.857Z,2.90
2022-08-14T16:12:45.946Z,2.85
2022-08-14T16:17:50.876Z,2.88
2022-08-14T16:22:59.080Z,3.08
2022-08-14T16:28:07.276Z,4.35
2022-08-14T16:33:11.372Z,2.40
2022-08-14T16:38:46.518Z,3.20
2022-08-14T16:43:54.094Z,2.67
2022-08-14T16:49:05.561Z,2.55
2022-08-14T16:54:21.015Z,2.50
2022-08-14T16:59:52.625Z,3.78
2022-08-14T17:05:15.693Z,3.50
2022-08-14T17:10:28.235Z,4.32
2022-08-14T17:15:31.840Z,3.83
2022-08-14T17:20:53.266Z,4.82
2022-08-14T17:25:58.305Z,4.72
2022-08-14T17:31:03.001Z,4.15
2022-08-14T17:36:24.308Z,4.15
2022-08-14T17:41:32.860Z,4.72
2022-08-14T17:46:48.116Z,4.75
2022-08-14T17:52:07.746Z,4.32
2022-08-14T17:57:23.307Z,4.97
2022-08-14T18:02:31.418Z,5.13
2022-08-14T18:08:31.288Z,4.82
2022-08-14T18:13:00.416Z,4.90
2022-08-14T18:18:08.774Z,5.18
2022-08-14T18:23:12.972Z,5.43
2022-08-14T18:28:43.623Z,5.47
2022-08-14T18:33:44.997Z,5.80
2022-08-14T18:39:00.161Z,6.38
2022-08-14T18:44:03.727Z,5.80
2022-08-14T18:49:16.506Z,5.93
2022-08-14T18:54:32.993Z,6.38
2022-08-14T18:59:42.307Z,6.50
2022-08-14T19:04:46.168Z,7.40
2022-08-14T19:09:58.042Z,6.63
2022-08-14T19:15:09.071Z,7.60
2022-08-14T19:20:13.227Z,8.20
2022-08-14T19:25:51.816Z,7.43
2022-08-14T19:31:26.032Z,8.43
2022-08-14T19:37:05.060Z,8.10
2022-08-14T19:42:10.546Z,8.80
2022-08-14T19:47:15.795Z,7.95
2022-08-14T19:52:24.199Z,9.25
2022-08-14T19:57:29.198Z,9.07
2022-08-14T20:02:32.181Z,9.40
2022-08-14T20:08:00.530Z,10.27
2022-08-14T20:13:12.506Z,9.98
2022-08-14T20:18:49.219Z,9.90
2022-08-14T20:23:50.031Z,10.68
2022-08-14T20:28:55.523Z,10.77
2022-08-14T20:34:04.645Z,10.95
2022-08-14T20:39:15.675Z,10.40
2022-08-14T20:44:41.594Z,10.98
2022-08-14T20:49:44.655Z,10.20
2022-08-14T20:54:51.637Z,10.63
2022-08-14T20:59:57.437Z,10.68
2022-08-14T21:05:04.660Z,10.93
2022-08-14T21:10:36.199Z,11.82
2022-08-14T21:15:40.802Z,11.73
2022-08-14T21:20:53.688Z,11.15
2022-08-14T21:26:03.624Z,11.60
2022-08-14T21:31:08.863Z,12.30
2022-08-14T21:36:21.699Z,12.15
2022-08-14T21:41:41.734Z,11.32
2022-08-14T21:46:53.977Z,11.52
2022-08-14T21:52:50.495Z,12.32
2022-08-14T21:57:55.801Z,11.98
2022-08-14T22:03:02.467Z,11.07
2022-08-14T22:08:06.786Z,11.88
2022-08-14T22:13:11.238Z,12.40
2022-08-14T22:18:20.380Z,11.82
2022-08-14T22:23:24.931Z,11.55
2022-08-14T22:28:33.449Z,12.07
2022-08-14T22:33:36.634Z,12.95
2022-08-14T22:38:49.589Z,12.50
2022-08-14T22:43:59.443Z,12.25
2022-08-14T22:49:16.262Z,12.18
2022-08-14T22:54:52.680Z,12.65
2022-08-14T22:59:53.267Z,13.02
2022-08-14T23:05:05.892Z,13.05
2022-08-14T23:10:33.000Z,13.00
2022-08-14T23:15:37.405Z,12.77
2022-08-14T23:20:44.422Z,13.40
2022-08-14T23:25:59.387Z,12.55
2022-08-14T23:31:05.577Z,12.00
2022-08-14T23:36:32.847Z,12.40
2022-08-14T23:41:47.070Z,13.63
2022-08-14T23:47:03.237Z,14.50
2022-08-14T23:53:04.090Z,13.90
2022-08-14T23:57:36.752Z,13.25
